Time;durP1;ratioP1;P1;durP2;ratioP2;P2;SDS_P1;SDS_P2;PMS_P1;PMS_P2;Temp;Humidity;BMP_temperature;BMP_pressure;BME280_temperature;BME280_humidity;BME280_pressure;Samples;Min_cycle;Max_cycle;Signal;HPM_P1;HPM_P2
2021/06/16 00:01:02;;;;;;;;;;;22.20;99.90;;;;;;5032890;28;20303;-73
2021/06/16 00:03:28;;;;;;;;;;;22.10;99.90;;;;;;5033292;28;20014;-73
2021/06/16 00:05:54;;;;;;;;;;;22.10;99.90;;;;;;5032409;28;19919;-73
2021/06/16 00:08:19;;;;;;;;;;;22.20;99.90;;;;;;5033790;28;19917;-73
2021/06/16 00:10:45;;;;;;;;;;;22.10;99.90;;;;;;5031632;28;19913;-72
2021/06/16 00:13:10;;;;;;;;;;;22.10;99.90;;;;;;5032433;28;19917;-72
2021/06/16 00:15:38;;;;;;;;;;;22.20;99.90;;;;;;5015674;28;19914;-73
2021/06/16 00:18:04;;;;;;;;;;;22.00;99.90;;;;;;5026337;28;20378;-73
2021/06/16 00:20:30;;;;;;;;;;;21.90;99.90;;;;;;5031808;28;19983;-73
2021/06/16 00:22:56;;;;;;;;;;;21.70;99.90;;;;;;5030996;28;19956;-73
2021/06/16 00:25:22;;;;;;;;;;;21.80;99.90;;;;;;5032857;28;20375;-73
2021/06/16 00:27:47;;;;;;;;;;;22.00;99.90;;;;;;5032228;28;19952;-73
2021/06/16 00:30:13;;;;;;;;;;;21.80;99.90;;;;;;5031682;28;19915;-73
2021/06/16 00:32:40;;;;;;;;;;;21.50;99.90;;;;;;5033190;28;19960;-73
2021/06/16 00:35:07;;;;;;;;;;;21.30;99.90;;;;;;5032918;28;20004;-73
2021/06/16 00:37:34;;;;;;;;;;;21.20;99.90;;;;;;5031655;28;20009;-73
2021/06/16 00:40:00;;;;;;;;;;;21.20;99.90;;;;;;5034257;28;19963;-73
2021/06/16 00:42:25;;;;;;;;;;;21.50;99.90;;;;;;5032790;28;19921;-73
2021/06/16 00:44:51;;;;;;;;;;;21.30;99.90;;;;;;5030834;28;19917;-72
2021/06/16 00:47:17;;;;;;;;;;;21.30;99.90;;;;;;5032309;28;20345;-72
2021/06/16 00:49:43;;;;;;;;;;;21.20;99.90;;;;;;5032244;28;19924;-73
2021/06/16 00:52:08;;;;;;;;;;;21.20;99.90;;;;;;5031552;28;19917;-72
2021/06/16 00:54:34;;;;;;;;;;;21.30;99.90;;;;;;5032033;28;20002;-72
2021/06/16 00:57:01;;;;;;;;;;;21.70;99.90;;;;;;5031776;28;20399;-73
2021/06/16 00:59:32;;;;;;;;;;;21.60;99.90;;;;;;5029350;28;19913;-72
2021/06/16 01:01:57;;;;;;;;;;;21.40;99.90;;;;;;5030738;28;19994;-72
2021/06/16 01:04:26;;;;;;;;;;;21.20;99.90;;;;;;5031638;28;20006;-72
2021/06/16 01:06:52;;;;;;;;;;;21.10;99.90;;;;;;5031045;28;20457;-72
2021/06/16 01:09:17;;;;;;;;;;;21.40;99.90;;;;;;5031762;28;19913;-73
2021/06/16 01:12:03;;;;;;;;;;;21.50;99.90;;;;;;5031296;28;19917;-73
2021/06/16 01:14:32;;;;;;;;;;;21.40;99.90;;;;;;5006030;28;19928;-73
2021/06/16 01:17:00;;;;;;;;;;;21.40;99.90;;;;;;5030061;28;19979;-72
2021/06/16 01:19:28;;;;;;;;;;;21.60;99.90;;;;;;5014137;28;19913;-73
2021/06/16 01:21:57;;;;;;;;;;;21.50;99.90;;;;;;5030421;28;19920;-73
2021/06/16 01:24:26;;;;;;;;;;;21.20;99.90;;;;;;5032760;28;19917;-73
2021/06/16 01:26:54;;;;;;;;;;;21.10;99.90;;;;;;5031397;28;19995;-73
2021/06/16 01:29:21;;;;;;;;;;;21.40;99.90;;;;;;5025656;28;20372;-73
2021/06/16 01:31:46;;;;;;;;;;;21.60;99.90;;;;;;5024309;28;20318;-71
2021/06/16 01:34:12;;;;;;;;;;;21.80;99.90;;;;;;5012173;28;19917;-74
2021/06/16 01:36:40;;;;;;;;;;;21.60;99.90;;;;;;5027417;28;19917;-74
2021/06/16 01:39:07;;;;;;;;;;;21.60;99.90;;;;;;5030781;28;20020;-73
2021/06/16 01:41:33;;;;;;;;;;;21.60;99.90;;;;;;5031399;28;19917;-72
2021/06/16 01:43:59;;;;;;;;;;;21.60;99.90;;;;;;5025989;28;19924;-73
2021/06/16 01:46:25;;;;;;;;;;;21.80;99.90;;;;;;5019548;28;20523;-74
2021/06/16 01:48:52;;;;;;;;;;;21.90;99.90;;;;;;5031293;28;19959;-73
2021/06/16 01:51:17;;;;;;;;;;;21.80;99.90;;;;;;5012844;28;20607;-72
2021/06/16 01:53:43;;;;;;;;;;;22.10;99.90;;;;;;5030749;28;19948;-72
2021/06/16 01:56:09;;;;;;;;;;;22.10;99.90;;;;;;5029918;28;21261;-73
2021/06/16 01:58:35;;;;;;;;;;;22.20;99.90;;;;;;5030800;28;20366;-72
2021/06/16 02:01:01;;;;;;;;;;;22.40;99.90;;;;;;5029683;28;20385;-72
2021/06/16 02:03:27;;;;;;;;;;;22.20;99.90;;;;;;5029139;28;20128;-73
2021/06/16 02:05:56;;;;;;;;;;;22.20;99.90;;;;;;5031451;28;20314;-73
2021/06/16 02:08:24;;;;;;;;;;;22.30;99.90;;;;;;5012362;28;19968;-73
2021/06/16 02:10:50;;;;;;;;;;;22.40;99.90;;;;;;5007864;28;19917;-73
2021/06/16 02:13:20;;;;;;;;;;;22.30;99.90;;;;;;5029291;28;19916;-73
2021/06/16 02:15:55;;;;;;;;;;;22.10;99.90;;;;;;5029788;28;19959;-73
2021/06/16 02:18:23;;;;;;;;;;;22.20;99.90;;;;;;5029902;28;20016;-73
2021/06/16 02:20:48;;;;;;;;;;;22.30;99.90;;;;;;5030809;28;19913;-73
2021/06/16 02:23:14;;;;;;;;;;;22.30;99.90;;;;;;5029647;28;20573;-73
2021/06/16 02:25:40;;;;;;;;;;;21.90;99.90;;;;;;5030750;28;20424;-73
2021/06/16 02:28:06;;;;;;;;;;;21.90;99.90;;;;;;5030104;28;20012;-73
2021/06/16 02:30:31;;;;;;;;;;;21.90;99.90;;;;;;5027867;28;20379;-73
2021/06/16 02:32:57;;;;;;;;;;;21.90;99.90;;;;;;5027871;28;20067;-73
2021/06/16 02:35:22;;;;;;;;;;;21.90;99.90;;;;;;5029484;28;20264;-73
2021/06/16 02:37:51;;;;;;;;;;;21.90;99.90;;;;;;5029716;28;19921;-73
2021/06/16 02:40:17;;;;;;;;;;;21.90;99.90;;;;;;5029227;28;19936;-73
2021/06/16 02:42:45;;;;;;;;;;;22.00;99.90;;;;;;5027007;28;20375;-73
2021/06/16 02:45:12;;;;;;;;;;;22.00;99.90;;;;;;5026528;28;19919;-73
2021/06/16 02:47:38;;;;;;;;;;;22.00;99.90;;;;;;5030271;28;20004;-73
2021/06/16 02:50:05;;;;;;;;;;;22.10;99.90;;;;;;5012362;28;19971;-73
2021/06/16 02:52:32;;;;;;;;;;;22.10;99.90;;;;;;5030100;28;19917;-73
2021/06/16 02:55:02;;;;;;;;;;;22.00;99.90;;;;;;5013044;28;19913;-73
2021/06/16 02:57:30;;;;;;;;;;;22.10;99.90;;;;;;5029009;28;19967;-73
2021/06/16 02:59:56;;;;;;;;;;;21.90;99.90;;;;;;5029863;28;19989;-73
2021/06/16 03:02:26;;;;;;;;;;;21.50;99.90;;;;;;5027540;28;19913;-73
2021/06/16 03:04:52;;;;;;;;;;;21.30;99.90;;;;;;5027772;28;19921;-73
2021/06/16 03:07:18;;;;;;;;;;;21.20;99.90;;;;;;5028918;28;19967;-73
2021/06/16 03:09:45;;;;;;;;;;;21.10;99.90;;;;;;5028870;28;19913;-73
2021/06/16 03:12:11;;;;;;;;;;;21.30;99.90;;;;;;5027494;28;20368;-73
2021/06/16 03:14:36;;;;;;;;;;;21.50;99.90;;;;;;5029873;28;19956;-73
2021/06/16 03:17:03;;;;;;;;;;;21.70;99.90;;;;;;5029093;28;19949;-73
2021/06/16 03:19:29;;;;;;;;;;;21.60;99.90;;;;;;5030978;28;19917;-72
2021/06/16 03:21:55;;;;;;;;;;;21.30;99.90;;;;;;5027992;28;19913;-72
2021/06/16 03:24:22;;;;;;;;;;;21.40;99.90;;;;;;5025546;28;20363;-73
2021/06/16 03:26:48;;;;;;;;;;;21.30;99.90;;;;;;5029049;28;20054;-73
2021/06/16 03:29:14;;;;;;;;;;;21.10;99.90;;;;;;5032986;28;20011;-73
2021/06/16 03:31:41;;;;;;;;;;;20.80;99.90;;;;;;5031908;28;20024;-73
2021/06/16 03:34:07;;;;;;;;;;;20.80;99.90;;;;;;5021268;28;20384;-73
2021/06/16 03:36:34;;;;;;;;;;;20.90;99.90;;;;;;5022469;28;19920;-73
2021/06/16 03:39:00;;;;;;;;;;;20.80;99.90;;;;;;5032989;28;19921;-73
2021/06/16 03:41:26;;;;;;;;;;;21.00;99.90;;;;;;5032707;28;20379;-73
2021/06/16 03:43:53;;;;;;;;;;;21.20;99.90;;;;;;5033596;28;19995;-73
2021/06/16 03:46:20;;;;;;;;;;;21.20;99.90;;;;;;5030037;28;19940;-72
2021/06/16 03:48:46;;;;;;;;;;;21.20;99.90;;;;;;5040553;28;20510;-72
2021/06/16 03:51:11;;;;;;;;;;;21.30;99.90;;;;;;5028466;28;19913;-73
2021/06/16 03:53:37;;;;;;;;;;;21.10;99.90;;;;;;5032285;28;20386;-73
2021/06/16 03:56:03;;;;;;;;;;;21.00;99.90;;;;;;5033900;28;20398;-73
2021/06/16 03:58:29;;;;;;;;;;;21.00;99.90;;;;;;5034170;28;19917;-73
2021/06/16 04:00:55;;;;;;;;;;;21.00;99.90;;;;;;5035424;28;19923;-72
2021/06/16 04:03:20;;;;;;;;;;;21.00;99.90;;;;;;5015343;28;19915;-72
2021/06/16 04:05:46;;;;;;;;;;;21.10;99.90;;;;;;5014249;28;19917;-69
2021/06/16 04:08:13;;;;;;;;;;;21.20;99.90;;;;;;5034228;28;19917;-73
2021/06/16 04:10:39;;;;;;;;;;;21.30;99.90;;;;;;5035119;28;20372;-73
2021/06/16 04:13:05;;;;;;;;;;;21.30;99.90;;;;;;5027777;28;19917;-73
2021/06/16 04:15:31;;;;;;;;;;;21.30;99.90;;;;;;5013068;28;19913;-72
2021/06/16 04:17:59;;;;;;;;;;;21.30;99.90;;;;;;5031068;28;20378;-73
2021/06/16 04:20:25;;;;;;;;;;;21.20;99.90;;;;;;5033177;28;19913;-74
2021/06/16 04:22:50;;;;;;;;;;;21.30;99.90;;;;;;5033294;28;19917;-73
2021/06/16 04:25:16;;;;;;;;;;;21.30;99.90;;;;;;5016557;28;20287;-73
2021/06/16 04:27:42;;;;;;;;;;;21.50;99.90;;;;;;5034245;28;20408;-74
2021/06/16 04:30:09;;;;;;;;;;;21.40;99.90;;;;;;5032463;28;19913;-73
2021/06/16 04:32:36;;;;;;;;;;;21.50;99.90;;;;;;5030183;28;19913;-72
2021/06/16 04:35:02;;;;;;;;;;;21.60;99.90;;;;;;5028875;28;19913;-71
2021/06/16 04:37:28;;;;;;;;;;;21.60;99.90;;;;;;5031724;28;19913;-72
2021/06/16 04:39:53;;;;;;;;;;;21.60;99.90;;;;;;5033064;28;19915;-73
2021/06/16 04:42:19;;;;;;;;;;;21.70;99.90;;;;;;5032048;28;20534;-74
2021/06/16 04:44:44;;;;;;;;;;;21.70;99.90;;;;;;5031987;28;19968;-70
2021/06/16 04:47:10;;;;;;;;;;;21.80;99.90;;;;;;5025970;28;19913;-72
2021/06/16 04:49:37;;;;;;;;;;;21.80;99.90;;;;;;5035160;28;19916;-73
2021/06/16 04:52:03;;;;;;;;;;;21.90;99.90;;;;;;5032752;28;19917;-73
2021/06/16 04:54:28;;;;;;;;;;;22.10;99.90;;;;;;5032086;28;19913;-72
2021/06/16 04:56:55;;;;;;;;;;;22.20;99.90;;;;;;5032397;28;19982;-73
2021/06/16 04:59:21;;;;;;;;;;;22.30;99.90;;;;;;5031784;28;19913;-73
2021/06/16 05:01:46;;;;;;;;;;;22.30;99.90;;;;;;5030433;28;19932;-72
2021/06/16 05:04:12;;;;;;;;;;;22.40;99.90;;;;;;5032635;28;19963;-73
2021/06/16 05:06:38;;;;;;;;;;;22.40;99.90;;;;;;5032309;28;20294;-73
2021/06/16 05:09:03;;;;;;;;;;;22.60;99.90;;;;;;5032715;28;19914;-72
2021/06/16 05:11:29;;;;;;;;;;;22.60;99.90;;;;;;5026187;28;20460;-71
2021/06/16 05:13:54;;;;;;;;;;;22.70;99.90;;;;;;5013151;28;20484;-70
2021/06/16 05:16:20;;;;;;;;;;;22.80;99.90;;;;;;5028733;28;20384;-69
2021/06/16 05:18:47;;;;;;;;;;;22.80;99.90;;;;;;5037558;28;19920;-71
2021/06/16 05:21:13;;;;;;;;;;;22.90;99.90;;;;;;5030405;28;19917;-74
2021/06/16 05:23:39;;;;;;;;;;;23.00;99.90;;;;;;5028265;28;19921;-72
2021/06/16 05:26:04;;;;;;;;;;;23.00;99.90;;;;;;5023136;28;19914;-71
2021/06/16 05:28:30;;;;;;;;;;;23.10;99.90;;;;;;5025221;28;19921;-73
2021/06/16 05:30:56;;;;;;;;;;;23.20;99.90;;;;;;5026353;28;19921;-72
2021/06/16 05:33:21;;;;;;;;;;;23.30;99.90;;;;;;5025157;28;19964;-72
2021/06/16 05:35:47;;;;;;;;;;;23.40;99.90;;;;;;5026664;28;19913;-64
2021/06/16 05:38:12;;;;;;;;;;;23.40;99.90;;;;;;5029832;28;19978;-64
2021/06/16 05:40:38;;;;;;;;;;;23.30;99.90;;;;;;5027309;28;19913;-63
2021/06/16 05:43:04;;;;;;;;;;;23.30;99.90;;;;;;5028765;28;20378;-63
2021/06/16 05:45:29;;;;;;;;;;;23.40;99.90;;;;;;5034379;28;20025;-62
2021/06/16 05:47:55;;;;;;;;;;;23.30;99.90;;;;;;5031201;28;20397;-63
2021/06/16 05:50:21;;;;;;;;;;;23.20;99.90;;;;;;5023061;28;19921;-63
2021/06/16 05:52:47;;;;;;;;;;;23.00;99.90;;;;;;5018261;28;19924;-62
2021/06/16 05:55:13;;;;;;;;;;;23.00;99.90;;;;;;5031408;28;20449;-63
2021/06/16 05:57:39;;;;;;;;;;;23.00;99.90;;;;;;5024519;28;19924;-63
2021/06/16 06:00:05;;;;;;;;;;;23.20;99.90;;;;;;5031039;28;19909;-63
2021/06/16 06:02:31;;;;;;;;;;;23.40;99.90;;;;;;5030426;28;19948;-63
2021/06/16 06:04:57;;;;;;;;;;;23.50;99.90;;;;;;5032030;28;19913;-63
2021/06/16 06:07:22;;;;;;;;;;;23.60;99.90;;;;;;5031349;28;19917;-61
2021/06/16 06:09:49;;;;;;;;;;;23.70;99.90;;;;;;5012237;28;19913;-63
2021/06/16 06:12:15;;;;;;;;;;;23.60;99.90;;;;;;5029987;28;20287;-63
2021/06/16 06:14:40;;;;;;;;;;;23.50;99.90;;;;;;5027952;28;19920;-63
2021/06/16 06:17:06;;;;;;;;;;;23.40;99.90;;;;;;5029437;28;19921;-63
2021/06/16 06:19:31;;;;;;;;;;;23.40;99.90;;;;;;5030796;28;19920;-63
2021/06/16 06:21:57;;;;;;;;;;;23.40;99.90;;;;;;5030740;28;19966;-69
2021/06/16 06:24:23;;;;;;;;;;;23.40;99.90;;;;;;5024590;28;19921;-70
2021/06/16 06:26:48;;;;;;;;;;;23.30;99.90;;;;;;5029008;28;19917;-68
2021/06/16 06:29:14;;;;;;;;;;;23.40;99.90;;;;;;5031585;28;19916;-67
2021/06/16 06:31:39;;;;;;;;;;;23.40;99.90;;;;;;5029843;28;19979;-69
2021/06/16 06:34:05;;;;;;;;;;;23.50;99.90;;;;;;5030764;28;20449;-70
2021/06/16 06:36:31;;;;;;;;;;;23.70;99.90;;;;;;5030519;28;19913;-70
2021/06/16 06:38:57;;;;;;;;;;;23.70;99.90;;;;;;5030408;28;19995;-68
2021/06/16 06:41:22;;;;;;;;;;;23.80;99.90;;;;;;5028227;28;20060;-68
2021/06/16 06:43:48;;;;;;;;;;;23.90;99.90;;;;;;5028711;28;19967;-67
2021/06/16 06:46:13;;;;;;;;;;;23.90;99.90;;;;;;5029110;28;19999;-68
2021/06/16 06:48:39;;;;;;;;;;;23.90;99.90;;;;;;5030361;28;19913;-68
2021/06/16 06:51:04;;;;;;;;;;;24.00;99.90;;;;;;5031321;28;19909;-67
2021/06/16 06:53:30;;;;;;;;;;;23.80;99.90;;;;;;5029532;28;19959;-68
2021/06/16 06:55:56;;;;;;;;;;;23.80;99.90;;;;;;5030460;28;19913;-68
2021/06/16 06:58:22;;;;;;;;;;;23.90;99.90;;;;;;5029449;28;20011;-69
2021/06/16 07:00:48;;;;;;;;;;;24.10;99.90;;;;;;5030439;28;20004;-68
2021/06/16 07:03:13;;;;;;;;;;;24.40;99.90;;;;;;5029535;28;19909;-69
2021/06/16 07:05:39;;;;;;;;;;;24.60;99.90;;;;;;5030565;28;19917;-68
2021/06/16 07:08:05;;;;;;;;;;;24.80;99.90;;;;;;5029203;28;19932;-67
2021/06/16 07:10:30;;;;;;;;;;;24.90;99.90;;;;;;5030569;28;20439;-70
2021/06/16 07:12:56;;;;;;;;;;;24.90;99.90;;;;;;5028992;28;19959;-73
2021/06/16 07:15:21;;;;;;;;;;;25.00;99.90;;;;;;5028884;28;19987;-68
2021/06/16 07:17:47;;;;;;;;;;;25.30;99.90;;;;;;5030433;28;19995;-72
2021/06/16 07:20:13;;;;;;;;;;;25.60;99.90;;;;;;5031077;28;19919;-67
2021/06/16 07:22:39;;;;;;;;;;;25.80;99.90;;;;;;5027035;28;19919;-68
2021/06/16 07:25:04;;;;;;;;;;;25.80;99.90;;;;;;5030770;28;19909;-68
2021/06/16 07:27:30;;;;;;;;;;;25.60;99.90;;;;;;5027480;28;19948;-69
2021/06/16 07:29:56;;;;;;;;;;;25.50;99.90;;;;;;5028371;28;20339;-69
2021/06/16 07:32:21;;;;;;;;;;;25.70;99.90;;;;;;5011069;28;19925;-68
2021/06/16 07:34:47;;;;;;;;;;;25.70;99.90;;;;;;5030257;28;19919;-69
2021/06/16 07:37:13;;;;;;;;;;;25.60;99.90;;;;;;5010050;28;20409;-69
2021/06/16 07:39:39;;;;;;;;;;;25.60;99.90;;;;;;5029854;28;20007;-69
2021/06/16 07:42:05;;;;;;;;;;;25.40;99.90;;;;;;5029149;28;19916;-69
2021/06/16 07:44:30;;;;;;;;;;;25.20;99.90;;;;;;5028903;28;19917;-69
2021/06/16 07:46:56;;;;;;;;;;;24.90;99.90;;;;;;5026893;28;19909;-68
2021/06/16 07:49:22;;;;;;;;;;;24.70;99.90;;;;;;5026832;28;20482;-68
2021/06/16 07:51:48;;;;;;;;;;;24.50;99.90;;;;;;5029701;28;19917;-69
2021/06/16 07:54:13;;;;;;;;;;;24.40;99.90;;;;;;5029874;28;19963;-69
2021/06/16 07:56:40;;;;;;;;;;;24.20;99.90;;;;;;5028824;28;19920;-68
2021/06/16 07:59:06;;;;;;;;;;;24.10;99.90;;;;;;5030651;28;19979;-68
2021/06/16 08:01:31;;;;;;;;;;;23.90;99.90;;;;;;5030500;28;19909;-71
2021/06/16 08:03:57;;;;;;;;;;;23.80;99.90;;;;;;5029046;28;19970;-69
2021/06/16 08:06:22;;;;;;;;;;;23.80;99.90;;;;;;5027853;28;19948;-69
2021/06/16 08:08:48;;;;;;;;;;;23.80;99.90;;;;;;5029448;28;19919;-69
2021/06/16 08:11:14;;;;;;;;;;;23.80;99.90;;;;;;5029500;28;20375;-68
2021/06/16 08:13:40;;;;;;;;;;;23.90;99.90;;;;;;5028986;28;19967;-69
2021/06/16 08:16:05;;;;;;;;;;;23.90;99.90;;;;;;5032152;28;20022;-68
2021/06/16 08:18:31;;;;;;;;;;;24.00;99.90;;;;;;5035023;28;20542;-70
2021/06/16 08:20:56;;;;;;;;;;;24.00;99.90;;;;;;5032578;28;19913;-69
2021/06/16 08:23:22;;;;;;;;;;;24.00;99.90;;;;;;5032698;28;19917;-68
2021/06/16 08:25:48;;;;;;;;;;;24.00;99.90;;;;;;5031570;28;21832;-70
2021/06/16 08:28:13;;;;;;;;;;;23.90;99.90;;;;;;5031911;28;20359;-67
2021/06/16 08:30:39;;;;;;;;;;;23.80;99.90;;;;;;5027698;28;19974;-69
2021/06/16 08:33:04;;;;;;;;;;;23.80;99.90;;;;;;5031733;28;19971;-69
2021/06/16 08:35:30;;;;;;;;;;;23.80;99.90;;;;;;5031646;28;19913;-68
2021/06/16 08:37:56;;;;;;;;;;;24.00;99.90;;;;;;5032849;28;20048;-69
2021/06/16 08:40:21;;;;;;;;;;;24.10;99.90;;;;;;5032209;28;19978;-69
2021/06/16 08:42:47;;;;;;;;;;;24.20;99.90;;;;;;5032103;28;19920;-69
2021/06/16 08:45:14;;;;;;;;;;;24.30;99.90;;;;;;5031232;28;19952;-68
2021/06/16 08:47:41;;;;;;;;;;;24.30;99.90;;;;;;5012574;28;20328;-69
2021/06/16 08:50:08;;;;;;;;;;;24.30;99.90;;;;;;5031985;28;20051;-68
2021/06/16 08:52:34;;;;;;;;;;;24.20;99.90;;;;;;5031859;28;20345;-68
2021/06/16 08:55:07;;;;;;;;;;;24.10;99.90;;;;;;5033489;28;19909;-69
2021/06/16 08:57:33;;;;;;;;;;;24.10;99.90;;;;;;5032200;28;19928;-68
2021/06/16 08:59:58;;;;;;;;;;;24.10;99.90;;;;;;5014930;28;19921;-68
2021/06/16 09:02:24;;;;;;;;;;;24.00;99.90;;;;;;5031080;28;20290;-68
2021/06/16 09:04:51;;;;;;;;;;;24.10;99.90;;;;;;5031965;28;19913;-68
2021/06/16 09:07:18;;;;;;;;;;;24.10;99.90;;;;;;5030645;28;19972;-69
2021/06/16 09:09:44;;;;;;;;;;;24.20;99.90;;;;;;5032394;28;19914;-69
2021/06/16 09:12:12;;;;;;;;;;;24.30;99.90;;;;;;5030968;28;20371;-70
2021/06/16 09:14:52;;;;;;;;;;;24.40;99.90;;;;;;5030851;28;19913;-70
2021/06/16 09:17:22;;;;;;;;;;;24.40;99.90;;;;;;5028589;28;19960;-69
2021/06/16 09:19:58;;;;;;;;;;;24.50;99.90;;;;;;5030423;28;19913;-69
2021/06/16 09:22:31;;;;;;;;;;;24.50;99.90;;;;;;5032871;28;19913;-71
2021/06/16 09:24:57;;;;;;;;;;;24.60;99.90;;;;;;5031531;28;19913;-68
2021/06/16 09:27:39;;;;;;;;;;;24.80;99.90;;;;;;5027329;28;19924;-69
2021/06/16 09:30:23;;;;;;;;;;;25.00;99.90;;;;;;5031823;28;19963;-68
2021/06/16 09:32:53;;;;;;;;;;;25.00;99.90;;;;;;5032250;28;19925;-71
2021/06/16 09:35:27;;;;;;;;;;;25.10;99.90;;;;;;5014401;28;19945;-68
2021/06/16 09:37:52;;;;;;;;;;;25.00;99.90;;;;;;5023783;28;19943;-68
2021/06/16 09:40:28;;;;;;;;;;;24.90;99.90;;;;;;5025584;28;19913;-68
2021/06/16 09:43:01;;;;;;;;;;;24.90;99.90;;;;;;5025048;28;20011;-68
2021/06/16 09:45:27;;;;;;;;;;;24.90;99.90;;;;;;5024118;28;19913;-70
2021/06/16 09:47:53;;;;;;;;;;;24.80;99.90;;;;;;5023232;28;19921;-69
2021/06/16 09:50:23;;;;;;;;;;;24.80;99.90;;;;;;5024309;28;20052;-69
2021/06/16 09:52:50;;;;;;;;;;;24.60;99.90;;;;;;5024138;28;19983;-69
2021/06/16 09:55:29;;;;;;;;;;;24.60;99.90;;;;;;5023716;28;20055;-69
2021/06/16 09:58:08;;;;;;;;;;;24.50;99.90;;;;;;5023519;28;20383;-70
2021/06/16 10:00:35;;;;;;;;;;;24.50;99.90;;;;;;5023821;28;19913;-69
2021/06/16 10:03:24;;;;;;;;;;;24.50;99.90;;;;;;5022739;28;19932;-70
2021/06/16 10:06:04;;;;;;;;;;;24.50;99.90;;;;;;5018277;28;19932;-69
2021/06/16 10:08:31;;;;;;;;;;;24.60;99.90;;;;;;5030293;28;20352;-70
2021/06/16 10:10:56;;;;;;;;;;;24.80;99.90;;;;;;5030924;28;20085;-67
2021/06/16 10:13:26;;;;;;;;;;;25.00;99.90;;;;;;5029817;28;20012;-70
2021/06/16 10:15:55;;;;;;;;;;;25.10;99.90;;;;;;5030469;28;19920;-69
2021/06/16 10:18:22;;;;;;;;;;;25.20;99.90;;;;;;5027698;28;19986;-68
2021/06/16 10:20:48;;;;;;;;;;;25.20;99.90;;;;;;5031515;28;19909;-69
2021/06/16 10:23:13;;;;;;;;;;;25.20;99.90;;;;;;5029637;28;20260;-71
2021/06/16 10:25:39;;;;;;;;;;;25.30;99.90;;;;;;5030473;28;19920;-68
2021/06/16 10:28:06;;;;;;;;;;;25.30;99.90;;;;;;5028589;28;19974;-70
2021/06/16 10:30:43;;;;;;;;;;;25.30;99.90;;;;;;5031467;28;19995;-69
2021/06/16 10:33:27;;;;;;;;;;;25.50;99.90;;;;;;5026784;28;20395;-67
2021/06/16 10:36:12;;;;;;;;;;;25.50;99.90;;;;;;5029883;28;19916;-69
2021/06/16 10:38:39;;;;;;;;;;;25.60;99.90;;;;;;5027167;28;19952;-69
2021/06/16 10:41:05;;;;;;;;;;;25.70;99.90;;;;;;5030254;28;19952;-68
2021/06/16 10:43:34;;;;;;;;;;;26.00;99.90;;;;;;5029699;28;19952;-69
2021/06/16 10:46:01;;;;;;;;;;;26.20;99.90;;;;;;5029980;28;19913;-69
2021/06/16 10:48:40;;;;;;;;;;;26.30;99.90;;;;;;5028103;28;19913;-71
2021/06/16 10:51:06;;;;;;;;;;;26.30;99.90;;;;;;5028090;28;20390;-69
2021/06/16 10:53:32;;;;;;;;;;;26.40;99.90;;;;;;5031111;28;19919;-68
2021/06/16 10:55:57;;;;;;;;;;;26.60;99.90;;;;;;5030191;28;20501;-69
2021/06/16 10:58:25;;;;;;;;;;;26.60;99.90;;;;;;5028785;28;19921;-69
2021/06/16 11:01:12;;;;;;;;;;;26.70;99.90;;;;;;5031478;28;19912;-69
2021/06/16 11:03:53;;;;;;;;;;;26.70;99.90;;;;;;5028908;28;19913;-67
2021/06/16 11:06:37;;;;;;;;;;;26.60;99.90;;;;;;5028792;28;20004;-71
2021/06/16 11:09:09;;;;;;;;;;;26.60;99.90;;;;;;5030983;28;19913;-69
2021/06/16 11:11:43;;;;;;;;;;;26.60;99.90;;;;;;5030229;28;19921;-69
2021/06/16 11:14:09;;;;;;;;;;;26.60;99.90;;;;;;5030897;28;19916;-67
2021/06/16 11:16:42;;;;;;;;;;;26.50;99.90;;;;;;5028995;28;19917;-68
2021/06/16 11:19:27;;;;;;;;;;;26.50;99.90;;;;;;5028757;28;19913;-70
2021/06/16 11:21:56;;;;;;;;;;;26.50;99.90;;;;;;5028150;28;19921;-70
2021/06/16 11:24:22;;;;;;;;;;;26.30;99.90;;;;;;5030863;28;20347;-70
2021/06/16 11:26:48;;;;;;;;;;;26.30;99.90;;;;;;5028860;28;19913;-69
2021/06/16 11:29:32;;;;;;;;;;;26.30;99.90;;;;;;5012783;28;20317;-71
2021/06/16 11:32:11;;;;;;;;;;;26.30;99.90;;;;;;5028549;28;19923;-68
2021/06/16 11:34:50;;;;;;;;;;;26.30;99.90;;;;;;5029136;28;20354;-70
2021/06/16 11:37:34;;;;;;;;;;;26.30;99.90;;;;;;5030930;28;19948;-69
2021/06/16 11:40:03;;;;;;;;;;;26.30;99.90;;;;;;5028599;28;19909;-69
2021/06/16 11:42:29;;;;;;;;;;;26.50;99.90;;;;;;5030636;28;19928;-70
2021/06/16 11:44:55;;;;;;;;;;;26.70;99.90;;;;;;5013055;28;19913;-69
2021/06/16 11:47:21;;;;;;;;;;;26.80;99.90;;;;;;5026500;28;19971;-70
2021/06/16 11:49:46;;;;;;;;;;;26.80;99.90;;;;;;5020953;28;19913;-69
2021/06/16 11:52:18;;;;;;;;;;;26.80;99.90;;;;;;5031854;28;20402;-72
2021/06/16 11:54:44;;;;;;;;;;;26.80;99.90;;;;;;5033742;28;19967;-69
2021/06/16 11:57:10;;;;;;;;;;;26.90;99.90;;;;;;5034190;28;19917;-68
2021/06/16 11:59:36;;;;;;;;;;;26.90;99.90;;;;;;5033536;28;19913;-68
2021/06/16 12:02:23;;;;;;;;;;;27.00;99.90;;;;;;5030738;28;19909;-69
2021/06/16 12:04:48;;;;;;;;;;;27.10;99.90;;;;;;5031281;28;19992;-70
2021/06/16 12:07:26;;;;;;;;;;;27.20;99.90;;;;;;5031613;28;20009;-68
2021/06/16 12:09:57;;;;;;;;;;;27.20;99.90;;;;;;5029927;28;19913;-69
2021/06/16 12:12:23;;;;;;;;;;;27.30;99.90;;;;;;5030290;28;19944;-69
2021/06/16 12:15:03;;;;;;;;;;;27.20;99.90;;;;;;5032891;28;21185;-69
2021/06/16 12:17:29;;;;;;;;;;;27.20;99.90;;;;;;5031254;28;19917;-67
2021/06/16 12:20:03;;;;;;;;;;;27.30;99.90;;;;;;5033769;28;19917;-70
2021/06/16 12:22:29;;;;;;;;;;;27.50;99.90;;;;;;5034225;28;20335;-70
2021/06/16 12:24:54;;;;;;;;;;;27.60;99.90;;;;;;5032767;28;20004;-67
2021/06/16 12:27:21;;;;;;;;;;;27.50;99.90;;;;;;5031695;28;19924;-69
2021/06/16 12:29:48;;;;;;;;;;;27.50;99.90;;;;;;5015568;28;19916;-69
2021/06/16 12:32:26;;;;;;;;;;;27.40;99.90;;;;;;5032066;28;19917;-69
2021/06/16 12:35:06;;;;;;;;;;;27.30;99.90;;;;;;5031659;28;19917;-68
2021/06/16 12:37:31;;;;;;;;;;;27.30;99.90;;;;;;5032409;28;19919;-70
2021/06/16 12:40:01;;;;;;;;;;;27.40;99.90;;;;;;5034126;28;19990;-68
2021/06/16 12:42:36;;;;;;;;;;;27.50;99.90;;;;;;5027922;28;19920;-68
2021/06/16 12:45:02;;;;;;;;;;;27.80;99.90;;;;;;5032834;28;19914;-68
2021/06/16 12:47:31;;;;;;;;;;;28.00;99.90;;;;;;5030861;28;19966;-71
2021/06/16 12:49:57;;;;;;;;;;;28.00;99.90;;;;;;5015046;28;19959;-69
2021/06/16 12:52:36;;;;;;;;;;;27.80;99.90;;;;;;5031726;28;20356;-69
2021/06/16 12:55:12;;;;;;;;;;;27.70;99.90;;;;;;5032587;28;19913;-69
2021/06/16 12:57:47;;;;;;;;;;;27.70;99.90;;;;;;5030446;28;19928;-70
2021/06/16 13:00:14;;;;;;;;;;;27.80;99.90;;;;;;5032143;28;19929;-69
2021/06/16 13:02:40;;;;;;;;;;;27.70;99.90;;;;;;5014982;28;19948;-69
2021/06/16 13:05:06;;;;;;;;;;;27.80;99.90;;;;;;5033829;28;19913;-69
2021/06/16 13:07:42;;;;;;;;;;;27.80;99.90;;;;;;5029682;28;19920;-69
2021/06/16 13:10:10;;;;;;;;;;;27.90;99.90;;;;;;5032610;28;19913;-70
2021/06/16 13:12:35;;;;;;;;;;;28.10;99.90;;;;;;5013331;28;19917;-70
2021/06/16 13:15:04;;;;;;;;;;;28.00;99.90;;;;;;5031958;28;20280;-70
2021/06/16 13:17:49;;;;;;;;;;;28.00;99.90;;;;;;5013658;28;19921;-70
2021/06/16 13:20:27;;;;;;;;;;;28.00;99.90;;;;;;5030646;28;19913;-68
2021/06/16 13:22:53;;;;;;;;;;;27.90;99.90;;;;;;5031321;28;20396;-70
2021/06/16 13:25:23;;;;;;;;;;;28.10;99.90;;;;;;5030032;28;20000;-70
2021/06/16 13:27:53;;;;;;;;;;;28.20;99.90;;;;;;5029198;28;19913;-68
2021/06/16 13:30:22;;;;;;;;;;;28.30;99.90;;;;;;5030414;28;19913;-68
2021/06/16 13:32:48;;;;;;;;;;;28.50;99.90;;;;;;5032379;28;20002;-69
2021/06/16 13:35:15;;;;;;;;;;;28.40;99.90;;;;;;5022074;28;19913;-68
2021/06/16 13:37:41;;;;;;;;;;;28.30;99.90;;;;;;5031489;28;20324;-69
2021/06/16 13:40:06;;;;;;;;;;;28.20;99.90;;;;;;5031569;28;19921;-68
2021/06/16 13:42:32;;;;;;;;;;;28.20;99.90;;;;;;5029889;28;19920;-71
2021/06/16 13:44:58;;;;;;;;;;;28.30;99.90;;;;;;5027355;28;19917;-69
2021/06/16 13:47:23;;;;;;;;;;;28.30;99.90;;;;;;5028809;28;19923;-69
2021/06/16 13:49:49;;;;;;;;;;;28.20;99.90;;;;;;5031651;28;19913;-68
2021/06/16 13:52:19;;;;;;;;;;;28.20;99.90;;;;;;5026559;28;19917;-70
2021/06/16 13:54:45;;;;;;;;;;;28.10;99.90;;;;;;5030128;28;19964;-71
2021/06/16 13:57:11;;;;;;;;;;;28.20;99.90;;;;;;5009611;28;20415;-66
2021/06/16 13:59:36;;;;;;;;;;;28.10;99.90;;;;;;5030551;28;20432;-69
2021/06/16 14:02:02;;;;;;;;;;;28.00;99.90;;;;;;5029920;28;19996;-70
2021/06/16 14:04:28;;;;;;;;;;;27.90;99.90;;;;;;5031871;28;19909;-69
2021/06/16 14:06:53;;;;;;;;;;;27.80;99.90;;;;;;5029601;28;19959;-70
2021/06/16 14:09:19;;;;;;;;;;;27.80;99.90;;;;;;5030090;28;20582;-68
2021/06/16 14:11:45;;;;;;;;;;;27.80;99.90;;;;;;5028375;28;19917;-70
2021/06/16 14:14:10;;;;;;;;;;;28.00;99.90;;;;;;5031486;28;19909;-69
2021/06/16 14:16:36;;;;;;;;;;;27.90;99.90;;;;;;5029065;28;19957;-69
2021/06/16 14:19:01;;;;;;;;;;;28.10;99.90;;;;;;5029830;28;19998;-70